Terminal Aerodrome Forecast
Issued by NWS

Home | Current Version | Previous Version | Text Only | Print | Product List | Glossary On
Versions: 1 2 3 4 5 6 7 8 9 10 11 12 13 14 15 16 17 18 19 20 21 22 23 24 25 26 27 28 29 30 31 32 33 34 35 36 37 38
000
FTAK31 PANC 302341
TAFASD
TAF
PASD 302341Z 3100/3124 10006KT P6SM VCSH SCT025 OVC040
      TEMPO 3100/3102 VRB05KT P6SM BKN050 OVC100
     FM310600 15015G25KT 4SM -RA BR BKN010 OVC025
     FM311300 22020G32KT 5SM -SHRA BKN015 OVC025
     FM312100 22025G35KT 5SM -SHRA BKN030 OVC040
      AMD LTD TO CLD VIS AND WIND=

USA.gov is the U.S. government's official web portal to all federal, state and local government web resources and services.